Time;durP1;ratioP1;P1;durP2;ratioP2;P2;SDS_P1;SDS_P2;PMS_P1;PMS_P2;Temp;Humidity;BMP_temperature;BMP_pressure;BME280_temperature;BME280_humidity;BME280_pressure;Samples;Min_cycle;Max_cycle;Signal;HPM_P1;HPM_P2
2023/06/06 00:01:40;;;;;;;12.50;6.22;;;10.30;99.90;;;;;;5112638;28;20399;-60
2023/06/06 00:04:06;;;;;;;11.65;6.50;;;10.30;99.90;;;;;;5100251;28;20480;-60
2023/06/06 00:06:35;;;;;;;11.27;5.95;;;10.30;99.90;;;;;;5091763;28;20072;-60
2023/06/06 00:09:05;;;;;;;11.10;6.68;;;10.30;99.90;;;;;;5093189;28;20384;-60
2023/06/06 00:11:31;;;;;;;9.95;5.93;;;10.20;99.90;;;;;;5091048;28;20040;-60
2023/06/06 00:13:56;;;;;;;13.20;5.63;;;10.20;99.90;;;;;;5091930;28;20048;-60
2023/06/06 00:16:23;;;;;;;10.38;5.57;;;10.20;99.90;;;;;;5090791;28;20608;-60
2023/06/06 00:18:52;;;;;;;12.32;5.80;;;10.10;99.90;;;;;;5092754;28;20388;-60
2023/06/06 00:21:21;;;;;;;8.95;5.32;;;10.10;99.90;;;;;;5092798;28;20066;-60
2023/06/06 00:23:47;;;;;;;11.70;6.07;;;10.10;99.90;;;;;;5091880;28;20063;-60
2023/06/06 00:26:12;;;;;;;13.50;6.07;;;10.10;99.90;;;;;;5091439;28;20048;-59
2023/06/06 00:28:38;;;;;;;11.48;5.78;;;10.10;99.90;;;;;;5091527;28;20421;-60
2023/06/06 00:31:04;;;;;;;11.45;6.35;;;10.10;99.90;;;;;;5090891;28;20043;-60
2023/06/06 00:33:30;;;;;;;9.98;5.53;;;10.10;99.90;;;;;;5092411;28;20040;-65
2023/06/06 00:35:55;;;;;;;9.65;5.93;;;10.10;99.90;;;;;;5092544;28;20430;-66
2023/06/06 00:38:21;;;;;;;11.60;5.45;;;10.00;99.90;;;;;;5091921;28;20452;-66
2023/06/06 00:40:47;;;;;;;10.15;5.70;;;10.00;99.90;;;;;;5091426;28;20047;-66
2023/06/06 00:43:14;;;;;;;12.30;5.78;;;10.00;99.90;;;;;;5092369;28;20040;-66
2023/06/06 00:45:40;;;;;;;13.23;5.93;;;10.00;99.90;;;;;;5090234;28;20044;-66
2023/06/06 00:48:06;;;;;;;11.85;5.80;;;10.00;99.90;;;;;;5092590;28;20036;-66
2023/06/06 00:50:34;;;;;;;11.73;5.82;;;10.00;99.90;;;;;;5091223;28;20090;-65
2023/06/06 00:53:01;;;;;;;12.82;5.50;;;10.00;99.90;;;;;;5091322;28;20079;-65
2023/06/06 00:55:28;;;;;;;11.05;4.70;;;10.00;99.90;;;;;;5090992;28;20047;-65
2023/06/06 00:57:54;;;;;;;10.73;6.38;;;10.00;99.90;;;;;;5092227;28;20047;-66
2023/06/06 01:00:21;;;;;;;12.70;5.75;;;10.00;99.90;;;;;;5090482;28;20070;-65
2023/06/06 01:02:48;;;;;;;11.93;5.60;;;10.00;99.90;;;;;;5091897;28;20036;-66
2023/06/06 01:05:16;;;;;;;12.32;6.18;;;10.00;99.90;;;;;;5092244;28;20470;-65
2023/06/06 01:07:47;;;;;;;10.52;5.90;;;10.00;99.90;;;;;;5089579;28;20040;-65
2023/06/06 01:10:13;;;;;;;11.00;5.88;;;10.00;99.90;;;;;;5092001;28;20052;-66
2023/06/06 01:13:12;;;;;;;12.13;5.97;;;10.00;99.90;;;;;;5098626;28;20035;-65
2023/06/06 01:16:02;;;;;;;11.32;5.65;;;10.10;99.90;;;;;;5092170;28;20044;-65
2023/06/06 01:18:31;;;;;;;13.23;5.97;;;10.10;99.90;;;;;;5092275;28;20039;-65
2023/06/06 01:20:58;;;;;;;10.82;5.97;;;10.00;99.90;;;;;;5091140;28;20626;-65
2023/06/06 01:23:27;;;;;;;12.55;6.72;;;10.10;99.90;;;;;;5093086;28;20060;-65
2023/06/06 01:25:54;;;;;;;10.20;6.25;;;10.10;99.90;;;;;;5093939;28;20096;-65
2023/06/06 01:28:19;;;;;;;11.27;5.88;;;10.10;99.90;;;;;;5111651;28;20106;-65
2023/06/06 01:30:45;;;;;;;13.10;6.38;;;10.10;99.90;;;;;;5111077;28;20428;-65
2023/06/06 01:33:31;;;;;;;14.23;6.85;;;10.10;99.90;;;;;;5106842;28;20032;-66
2023/06/06 01:36:07;;;;;;;;;;;10.10;99.90;;;;;;5091697;28;20048;-65
2023/06/06 01:38:44;;;;;;;17.73;6.85;;;10.10;99.90;;;;;;5090615;28;19923;-65
2023/06/06 01:41:12;;;;;;;13.13;7.38;;;10.10;99.90;;;;;;5089682;28;20481;-65
2023/06/06 01:43:40;;;;;;;14.13;7.43;;;10.10;99.90;;;;;;5091406;28;20086;-65
2023/06/06 01:46:07;;;;;;;13.63;7.65;;;10.20;99.90;;;;;;5091788;28;20048;-65
2023/06/06 01:48:34;;;;;;;13.68;6.40;;;10.20;99.90;;;;;;5089777;28;20043;-65
2023/06/06 01:51:00;;;;;;;12.45;7.40;;;10.30;99.90;;;;;;5090479;28;20044;-65
2023/06/06 01:53:25;;;;;;;12.30;6.75;;;10.30;99.90;;;;;;5090552;28;20059;-66
2023/06/06 01:55:51;;;;;;;12.60;7.25;;;10.40;99.90;;;;;;5091043;28;20040;-65
2023/06/06 01:58:18;;;;;;;12.32;7.03;;;10.40;99.90;;;;;;5090263;28;20043;-65
2023/06/06 02:00:44;;;;;;;18.75;7.80;;;10.40;99.90;;;;;;5091564;28;20377;-66
2023/06/06 02:03:11;;;;;;;13.35;7.70;;;10.50;99.90;;;;;;5089396;28;20040;-66
2023/06/06 02:05:37;;;;;;;15.05;7.00;;;10.50;99.90;;;;;;5091438;28;20048;-65
2023/06/06 02:08:03;;;;;;;11.93;7.18;;;10.50;99.90;;;;;;5092058;28;20051;-65
2023/06/06 02:10:28;;;;;;;13.25;6.82;;;10.60;99.90;;;;;;5090893;28;20067;-65
2023/06/06 02:12:54;;;;;;;12.75;6.47;;;10.60;99.90;;;;;;5091590;28;20044;-65
2023/06/06 02:15:21;;;;;;;12.77;6.57;;;10.60;99.90;;;;;;5105218;28;20471;-65
2023/06/06 02:17:46;;;;;;;10.48;6.72;;;10.70;99.90;;;;;;5109953;28;20044;-66
2023/06/06 02:20:12;;;;;;;10.38;6.15;;;10.70;99.90;;;;;;5112738;28;20480;-65
2023/06/06 02:22:39;;;;;;;15.50;7.05;;;10.70;99.90;;;;;;5115384;28;20048;-65
2023/06/06 02:25:05;;;;;;;13.35;6.53;;;10.80;99.90;;;;;;5113204;28;20518;-65
2023/06/06 02:27:33;;;;;;;12.82;6.72;;;10.80;99.90;;;;;;5115492;28;20043;-65
2023/06/06 02:29:59;;;;;;;13.30;7.53;;;10.90;99.90;;;;;;5113169;28;20036;-65
2023/06/06 02:32:25;;;;;;;13.60;6.72;;;10.90;99.90;;;;;;5115252;28;20034;-65
2023/06/06 02:34:50;;;;;;;12.25;6.97;;;10.90;99.90;;;;;;5113578;28;20476;-66
2023/06/06 02:37:16;;;;;;;15.48;7.85;;;10.90;99.90;;;;;;5113169;28;20036;-66
2023/06/06 02:39:42;;;;;;;15.52;6.63;;;10.90;99.90;;;;;;5093478;28;20092;-66
2023/06/06 02:42:08;;;;;;;13.07;7.30;;;11.00;99.90;;;;;;5095065;28;20029;-65
2023/06/06 02:44:34;;;;;;;11.02;5.47;;;10.90;99.90;;;;;;5093559;28;20480;-65
2023/06/06 02:46:59;;;;;;;14.25;6.03;;;11.00;99.90;;;;;;5093234;28;20041;-65
2023/06/06 02:49:29;;;;;;;12.50;5.65;;;11.00;99.90;;;;;;5093650;28;20043;-65
2023/06/06 02:51:55;;;;;;;15.90;5.97;;;11.00;99.90;;;;;;5075530;28;20040;-66
2023/06/06 02:54:21;;;;;;;14.70;6.30;;;11.00;99.90;;;;;;5093289;28;20064;-66
2023/06/06 02:56:46;;;;;;;8.48;6.03;;;11.00;99.90;;;;;;5094329;28;20136;-66
2023/06/06 02:59:12;;;;;;;12.48;6.13;;;11.10;99.90;;;;;;5093549;28;20043;-66
2023/06/06 03:01:42;;;;;;;11.88;6.70;;;11.10;99.90;;;;;;5093087;28;20040;-66
2023/06/06 03:04:08;;;;;;;14.55;6.32;;;11.10;99.90;;;;;;5094592;28;20097;-66
2023/06/06 03:06:36;;;;;;;9.18;5.57;;;11.10;99.90;;;;;;5092374;28;20048;-65
2023/06/06 03:09:03;;;;;;;9.65;5.43;;;11.00;99.90;;;;;;5094724;28;20107;-65
2023/06/06 03:11:30;;;;;;;13.00;6.18;;;11.10;99.90;;;;;;5092925;28;20509;-65
2023/06/06 03:13:56;;;;;;;15.15;6.63;;;11.10;99.90;;;;;;5104633;28;20115;-66
2023/06/06 03:16:26;;;;;;;10.88;5.85;;;11.10;99.90;;;;;;5114410;28;20137;-65
2023/06/06 03:18:52;;;;;;;10.80;6.40;;;11.10;99.90;;;;;;5113136;28;20079;-65
2023/06/06 03:21:19;;;;;;;11.02;6.50;;;11.00;99.90;;;;;;5113611;28;20446;-65
2023/06/06 03:23:45;;;;;;;13.13;7.05;;;11.00;99.90;;;;;;5112691;28;20056;-65
2023/06/06 03:26:11;;;;;;;11.40;6.32;;;11.00;99.90;;;;;;5113270;28;20504;-65
2023/06/06 03:28:37;;;;;;;11.57;7.18;;;11.00;99.90;;;;;;5114212;28;20071;-65
2023/06/06 03:31:07;;;;;;;11.07;7.28;;;11.00;99.90;;;;;;5095688;28;20044;-66
2023/06/06 03:33:33;;;;;;;10.10;6.07;;;11.00;99.90;;;;;;5112153;28;20399;-66
2023/06/06 03:35:59;;;;;;;11.35;6.93;;;10.90;99.90;;;;;;5113903;28;20040;-66
2023/06/06 03:38:25;;;;;;;11.07;6.88;;;11.00;99.90;;;;;;5112723;28;20489;-65
2023/06/06 03:40:51;;;;;;;15.38;6.47;;;10.90;99.90;;;;;;5112187;28;20047;-65
2023/06/06 03:43:16;;;;;;;11.65;5.95;;;10.90;99.90;;;;;;5112865;28;20073;-66
2023/06/06 03:45:42;;;;;;;12.15;5.90;;;10.90;99.90;;;;;;5113366;28;20515;-66
2023/06/06 03:48:09;;;;;;;10.93;6.32;;;10.90;99.90;;;;;;5111922;28;20032;-65
2023/06/06 03:50:35;;;;;;;12.60;7.00;;;10.90;99.90;;;;;;5114220;28;20040;-65
2023/06/06 03:53:02;;;;;;;14.18;6.72;;;10.90;99.90;;;;;;5113787;28;20031;-66
2023/06/06 03:55:28;;;;;;;13.38;6.55;;;10.80;99.90;;;;;;5094201;28;20039;-66
2023/06/06 03:57:54;;;;;;;12.35;5.43;;;10.80;99.90;;;;;;5112372;28;20135;-66
2023/06/06 04:00:20;;;;;;;12.85;6.30;;;10.80;99.90;;;;;;5112496;28;20494;-65
2023/06/06 04:02:49;;;;;;;11.95;5.82;;;10.80;99.90;;;;;;5112989;28;20088;-65
2023/06/06 04:05:16;;;;;;;13.25;7.22;;;10.80;99.90;;;;;;5112118;28;20403;-66
2023/06/06 04:07:42;;;;;;;16.08;6.88;;;10.80;99.90;;;;;;5113438;28;20085;-66
2023/06/06 04:10:08;;;;;;;11.45;5.85;;;10.90;99.90;;;;;;5112782;28;20514;-66
2023/06/06 04:12:34;;;;;;;12.40;6.88;;;10.90;99.90;;;;;;5113468;28;20028;-66
2023/06/06 04:15:00;;;;;;;12.93;6.82;;;10.90;99.90;;;;;;5111817;28;20510;-65
2023/06/06 04:17:26;;;;;;;15.40;6.95;;;11.00;99.90;;;;;;5111509;28;20366;-65
2023/06/06 04:19:52;;;;;;;12.50;6.72;;;11.00;99.90;;;;;;5112004;28;20480;-66
2023/06/06 04:22:20;;;;;;;14.43;6.85;;;11.10;99.90;;;;;;5113017;28;20537;-65
2023/06/06 04:24:46;;;;;;;13.32;6.82;;;11.10;99.90;;;;;;5110939;28;20043;-65
2023/06/06 04:27:12;;;;;;;16.70;6.95;;;11.10;99.90;;;;;;5113286;28;20071;-65
2023/06/06 04:29:41;;;;;;;11.15;6.30;;;11.20;99.90;;;;;;5112393;28;20036;-65
2023/06/06 04:32:08;;;;;;;13.73;7.07;;;11.20;99.90;;;;;;5113330;28;20108;-65
2023/06/06 04:34:39;;;;;;;16.20;7.35;;;11.20;99.90;;;;;;5112834;28;20115;-65
2023/06/06 04:37:05;;;;;;;12.60;6.30;;;11.30;99.90;;;;;;5112512;28;20036;-66
2023/06/06 04:39:32;;;;;;;12.05;6.47;;;11.30;99.90;;;;;;5112682;28;20035;-66
2023/06/06 04:42:02;;;;;;;11.77;6.10;;;11.40;99.90;;;;;;5111761;28;20035;-65
2023/06/06 04:44:28;;;;;;;12.73;6.72;;;11.50;99.90;;;;;;5111599;28;20035;-65
2023/06/06 04:47:03;;;;;;;9.73;6.32;;;11.50;99.90;;;;;;5112726;28;20079;-65
2023/06/06 04:49:39;;;;;;;10.43;5.80;;;11.50;99.90;;;;;;5111904;28;20113;-66
2023/06/06 04:52:10;;;;;;;14.02;6.28;;;11.60;99.90;;;;;;5111774;28;20475;-66
2023/06/06 04:54:39;;;;;;;10.98;6.18;;;11.60;99.90;;;;;;5111562;28;20036;-65
2023/06/06 04:57:07;;;;;;;11.57;5.82;;;11.70;99.90;;;;;;5112379;28;20531;-65
2023/06/06 04:59:33;;;;;;;14.25;6.68;;;11.80;99.90;;;;;;5101586;28;20070;-66
2023/06/06 05:02:00;;;;;;;10.50;6.13;;;11.80;99.90;;;;;;5092173;28;20046;-66
2023/06/06 05:04:29;;;;;;;16.02;7.00;;;11.90;99.90;;;;;;5101918;28;20114;-66
2023/06/06 05:06:55;;;;;;;12.15;5.93;;;12.00;99.90;;;;;;5109475;28;20100;-66
2023/06/06 05:09:21;;;;;;;12.00;6.10;;;12.10;99.90;;;;;;5110874;28;21009;-66
2023/06/06 05:11:49;;;;;;;13.88;5.35;;;12.20;99.90;;;;;;5110540;28;20043;-66
2023/06/06 05:14:15;;;;;;;14.52;5.95;;;12.20;99.90;;;;;;5110998;28;20450;-66
2023/06/06 05:16:46;;;;;;;9.73;5.85;;;12.30;99.90;;;;;;5100840;28;20393;-66
2023/06/06 05:19:15;;;;;;;10.32;4.93;;;12.40;99.90;;;;;;5103886;28;20109;-65
2023/06/06 05:21:41;;;;;;;9.25;5.47;;;12.40;99.90;;;;;;5110743;28;20047;-66
2023/06/06 05:24:07;;;;;;;12.95;5.88;;;12.50;99.90;;;;;;5104255;28;20063;-66
2023/06/06 05:26:33;;;;;;;11.13;5.43;;;12.60;99.90;;;;;;5093424;28;20085;-66
2023/06/06 05:29:00;;;;;;;11.43;4.75;;;12.60;99.90;;;;;;5100986;28;20067;-66
2023/06/06 05:31:25;;;;;;;11.90;4.88;;;12.70;99.90;;;;;;5089694;28;20056;-67
2023/06/06 05:33:52;;;;;;;9.48;4.88;;;12.70;99.90;;;;;;5088730;28;20043;-66
2023/06/06 05:36:18;;;;;;;10.55;4.75;;;12.80;99.90;;;;;;5088394;28;20071;-66
2023/06/06 05:38:43;;;;;;;9.23;5.57;;;12.70;99.90;;;;;;5089201;28;20040;-66
2023/06/06 05:41:09;;;;;;;9.25;5.18;;;12.80;99.90;;;;;;5098307;28;20044;-66
2023/06/06 05:43:35;;;;;;;10.15;5.22;;;12.80;99.90;;;;;;5089730;28;20048;-65
2023/06/06 05:46:01;;;;;;;11.80;5.40;;;12.80;99.90;;;;;;5089324;28;20036;-65
2023/06/06 05:48:28;;;;;;;10.32;4.90;;;12.90;99.90;;;;;;5087557;28;20096;-64
2023/06/06 05:50:53;;;;;;;10.88;5.13;;;12.90;99.90;;;;;;5087906;28;20040;-64
2023/06/06 05:53:19;;;;;;;11.13;5.20;;;13.00;99.90;;;;;;5103355;28;20042;-65
2023/06/06 05:55:45;;;;;;;11.70;4.15;;;13.20;99.90;;;;;;5110101;28;20126;-62
2023/06/06 05:58:11;;;;;;;10.25;4.80;;;13.20;99.90;;;;;;5109652;28;20134;-63
2023/06/06 06:00:36;;;;;;;9.43;4.80;;;13.10;99.90;;;;;;5107379;28;20043;-65
2023/06/06 06:03:02;;;;;;;13.20;4.05;;;13.10;99.90;;;;;;5111160;28;20043;-61
2023/06/06 06:05:29;;;;;;;9.95;3.78;;;13.20;99.90;;;;;;5111622;28;20043;-63
2023/06/06 06:07:59;;;;;;;8.95;3.53;;;13.20;99.90;;;;;;5099949;28;20043;-64
2023/06/06 06:10:26;;;;;;;9.30;3.97;;;13.20;99.90;;;;;;5091546;28;20122;-63
2023/06/06 06:12:52;;;;;;;8.00;3.83;;;13.30;99.90;;;;;;5099739;28;20046;-64
2023/06/06 06:15:17;;;;;;;10.52;4.07;;;13.40;99.90;;;;;;5093784;28;20081;-63
2023/06/06 06:17:43;;;;;;;8.02;3.80;;;13.40;99.90;;;;;;5110943;28;20044;-63
2023/06/06 06:20:10;;;;;;;8.57;4.07;;;13.50;99.90;;;;;;5096737;28;20161;-63
2023/06/06 06:22:36;;;;;;;7.57;3.55;;;13.50;99.90;;;;;;5109497;28;20047;-62
2023/06/06 06:25:03;;;;;;;6.82;3.17;;;13.50;99.90;;;;;;5075804;28;20522;-63
2023/06/06 06:27:30;;;;;;;7.72;3.67;;;13.60;99.90;;;;;;5105524;28;20058;-63
2023/06/06 06:29:56;;;;;;;8.88;4.13;;;13.60;99.90;;;;;;5094381;28;20023;-63
2023/06/06 06:32:23;;;;;;;7.38;3.88;;;13.70;99.90;;;;;;5101867;28;20059;-63
2023/06/06 06:34:49;;;;;;;8.10;3.67;;;13.70;99.90;;;;;;5111676;28;20046;-63
2023/06/06 06:37:16;;;;;;;6.25;3.53;;;13.80;99.90;;;;;;5096613;28;20055;-63
2023/06/06 06:39:42;;;;;;;9.65;4.47;;;13.80;99.90;;;;;;5093524;28;20039;-64
2023/06/06 06:42:08;;;;;;;8.38;3.80;;;13.90;99.90;;;;;;5096917;28;20047;-63
2023/06/06 06:44:34;;;;;;;8.63;4.43;;;13.90;99.90;;;;;;5112578;28;20043;-64
2023/06/06 06:47:01;;;;;;;8.10;3.63;;;13.90;99.90;;;;;;5087646;28;20388;-64
2023/06/06 06:49:26;;;;;;;8.57;3.88;;;13.90;99.90;;;;;;5093040;27;20039;-64
2023/06/06 06:51:52;;;;;;;7.45;4.25;;;14.00;99.90;;;;;;5095558;28;20036;-64
2023/06/06 06:54:21;;;;;;;7.53;3.92;;;14.20;99.90;;;;;;5076248;28;20039;-64
2023/06/06 06:56:48;;;;;;;7.55;4.35;;;14.20;99.90;;;;;;5110481;28;20039;-65
2023/06/06 06:59:14;;;;;;;10.75;3.88;;;14.30;99.90;;;;;;5105675;28;20051;-65
2023/06/06 07:01:40;;;;;;;9.88;3.85;;;14.30;99.90;;;;;;5090454;28;20499;-65
2023/06/06 07:04:08;;;;;;;7.97;3.35;;;14.30;99.90;;;;;;5090468;28;20569;-65
2023/06/06 07:06:34;;;;;;;9.48;4.13;;;14.40;99.90;;;;;;5090688;28;20051;-65
2023/06/06 07:09:00;;;;;;;7.22;3.50;;;14.40;99.90;;;;;;5091837;28;20439;-65
2023/06/06 07:11:27;;;;;;;7.05;3.40;;;14.40;99.90;;;;;;5107662;28;20035;-64
2023/06/06 07:13:52;;;;;;;10.00;4.60;;;14.50;99.90;;;;;;5109505;28;20075;-65
2023/06/06 07:16:20;;;;;;;8.27;4.00;;;14.60;99.90;;;;;;5108921;28;21214;-65
2023/06/06 07:18:47;;;;;;;10.85;4.32;;;14.70;99.90;;;;;;5104531;28;20071;-65
2023/06/06 07:21:13;;;;;;;8.32;3.55;;;14.70;99.90;;;;;;5086462;28;20055;-65
2023/06/06 07:23:39;;;;;;;8.88;3.47;;;14.70;99.90;;;;;;5105791;28;20052;-65
2023/06/06 07:26:09;;;;;;;9.02;4.35;;;14.70;99.90;;;;;;5109189;28;20126;-65
2023/06/06 07:28:35;;;;;;;11.90;4.47;;;14.80;99.90;;;;;;5108936;28;20130;-65
2023/06/06 07:31:01;;;;;;;7.97;3.72;;;14.90;99.90;;;;;;5102692;28;20185;-65
2023/06/06 07:33:26;;;;;;;7.22;4.03;;;15.00;99.90;;;;;;5092523;28;20473;-65
2023/06/06 07:35:52;;;;;;;8.15;4.10;;;15.00;99.90;;;;;;5105621;28;20059;-65
2023/06/06 07:38:17;;;;;;;9.35;3.75;;;14.90;99.90;;;;;;5108173;28;20093;-65
2023/06/06 07:40:43;;;;;;;8.45;4.03;;;14.80;99.90;;;;;;5093152;28;20071;-65
2023/06/06 07:43:11;;;;;;;8.48;4.78;;;14.90;99.90;;;;;;5100816;28;20047;-65
2023/06/06 07:45:37;;;;;;;7.18;3.88;;;14.90;99.90;;;;;;5108521;28;20170;-65
2023/06/06 07:48:03;;;;;;;8.75;4.18;;;15.00;99.90;;;;;;5102177;28;20119;-65
2023/06/06 07:50:29;;;;;;;11.18;4.57;;;14.90;99.90;;;;;;5094086;28;20055;-65
2023/06/06 07:52:54;;;;;;;8.15;3.97;;;15.00;99.90;;;;;;5112791;28;20043;-65
2023/06/06 07:55:20;;;;;;;10.93;4.40;;;15.20;99.90;;;;;;5111964;28;20126;-65
2023/06/06 07:57:46;;;;;;;8.30;4.05;;;15.20;99.90;;;;;;5113479;28;20048;-65
2023/06/06 08:00:12;;;;;;;9.48;3.75;;;15.30;99.90;;;;;;5111849;28;20043;-65
2023/06/06 08:02:42;;;;;;;8.50;3.85;;;15.40;99.90;;;;;;5111401;28;20031;-65
2023/06/06 08:05:09;;;;;;;7.60;4.05;;;15.50;99.90;;;;;;5113563;28;20047;-65
2023/06/06 08:07:36;;;;;;;9.20;3.97;;;15.50;99.90;;;;;;5112791;28;20040;-65
2023/06/06 08:10:02;;;;;;;8.68;4.18;;;15.50;99.90;;;;;;5111946;28;20153;-65
2023/06/06 08:12:28;;;;;;;10.90;4.35;;;15.40;99.90;;;;;;5113262;28;20158;-65
2023/06/06 08:14:54;;;;;;;9.95;4.25;;;15.40;99.90;;;;;;5086759;28;20075;-65
2023/06/06 08:17:20;;;;;;;7.28;4.65;;;15.40;99.90;;;;;;5098729;28;20400;-65
2023/06/06 08:19:45;;;;;;;8.57;3.88;;;15.50;99.90;;;;;;5094179;28;20044;-64
2023/06/06 08:22:11;;;;;;;9.52;4.43;;;15.50;99.90;;;;;;5112215;28;20023;-65
2023/06/06 08:24:46;;;;;;;12.18;5.03;;;15.60;99.90;;;;;;5108822;28;20052;-65
2023/06/06 08:27:11;;;;;;;9.27;4.90;;;15.80;99.90;;;;;;5110643;28;20036;-65
2023/06/06 08:29:37;;;;;;;8.50;3.90;;;15.90;99.90;;;;;;5094357;28;20503;-65
2023/06/06 08:32:04;;;;;;;12.43;4.60;;;15.90;99.90;;;;;;5111823;28;20472;-63
2023/06/06 08:34:30;;;;;;;9.55;4.70;;;15.90;99.90;;;;;;5111326;28;20039;-63
2023/06/06 08:36:56;;;;;;;6.88;4.38;;;15.90;99.90;;;;;;5111000;28;20385;-63
2023/06/06 08:39:22;;;;;;;9.88;4.47;;;16.00;99.90;;;;;;5112980;28;20080;-63
2023/06/06 08:41:47;;;;;;;9.40;4.85;;;16.00;99.90;;;;;;5113170;28;20453;-63
2023/06/06 08:44:14;;;;;;;9.68;4.75;;;15.90;99.90;;;;;;5111015;28;20136;-62
2023/06/06 08:46:41;;;;;;;9.35;4.72;;;15.70;99.90;;;;;;5112529;28;20035;-63
2023/06/06 08:49:08;;;;;;;9.35;4.50;;;15.60;99.90;;;;;;5094840;28;20039;-63
2023/06/06 08:51:34;;;;;;;11.07;5.15;;;15.50;99.90;;;;;;5112074;28;20039;-63
2023/06/06 08:54:01;;;;;;;10.10;4.97;;;15.60;99.90;;;;;;5111417;28;20055;-63
2023/06/06 08:56:27;;;;;;;8.45;5.00;;;15.60;99.90;;;;;;5112998;28;20051;-63
2023/06/06 08:58:53;;;;;;;11.93;5.20;;;15.60;99.90;;;;;;5111935;28;20051;-63
2023/06/06 09:01:22;;;;;;;11.55;5.78;;;15.70;99.90;;;;;;5111274;28;20115;-62
2023/06/06 09:03:52;;;;;;;11.73;5.78;;;15.60;99.90;;;;;;5111915;28;20039;-63
2023/06/06 09:06:18;;;;;;;9.45;5.40;;;15.70;99.90;;;;;;5111240;28;20050;-63
2023/06/06 09:08:44;;;;;;;7.97;5.07;;;15.90;99.90;;;;;;5111188;28;20408;-63
2023/06/06 09:11:11;;;;;;;9.32;4.88;;;15.90;99.90;;;;;;5110548;28;20044;-63
2023/06/06 09:13:41;;;;;;;9.43;5.43;;;16.00;99.90;;;;;;5111452;28;20060;-63
2023/06/06 09:16:08;;;;;;;11.23;4.80;;;16.00;99.90;;;;;;5111611;28;20074;-63
2023/06/06 09:18:35;;;;;;;8.15;4.88;;;15.90;99.90;;;;;;5111671;28;20042;-63
2023/06/06 09:21:01;;;;;;;15.20;6.05;;;16.10;99.90;;;;;;5111074;28;20508;-63
2023/06/06 09:23:31;;;;;;;9.52;5.65;;;16.00;99.90;;;;;;5110897;28;20066;-63
2023/06/06 09:25:57;;;;;;;9.38;5.55;;;15.90;99.90;;;;;;5110211;28;20127;-63
2023/06/06 09:28:44;;;;;;;9.32;5.22;;;15.80;99.90;;;;;;5094312;28;20040;-63
2023/06/06 09:31:32;;;;;;;9.68;4.82;;;15.80;99.90;;;;;;5114839;28;20035;-63
2023/06/06 09:33:59;;;;;;;9.68;5.60;;;15.70;99.90;;;;;;5114577;28;20058;-62
2023/06/06 09:36:28;;;;;;;9.38;5.15;;;15.80;99.90;;;;;;5115299;28;20054;-63
2023/06/06 09:39:15;;;;;;;10.15;4.32;;;16.00;99.90;;;;;;5098927;28;20038;-61
2023/06/06 09:41:48;;;;;;;8.23;4.15;;;16.30;99.90;;;;;;5078182;28;20044;-60
2023/06/06 09:44:21;;;;;;;10.48;4.72;;;16.30;99.90;;;;;;5096469;28;20062;-61
2023/06/06 09:46:48;;;;;;;7.75;4.68;;;16.40;99.90;;;;;;5076946;28;20143;-60
2023/06/06 09:49:14;;;;;;;10.75;5.68;;;16.40;99.90;;;;;;5099986;28;20605;-60
2023/06/06 09:51:44;;;;;;;9.05;5.28;;;16.50;99.90;;;;;;5077614;28;20361;-60
2023/06/06 09:54:11;;;;;;;9.25;5.18;;;16.60;99.90;;;;;;5093630;28;20054;-62
2023/06/06 09:56:40;;;;;;;10.68;4.90;;;16.80;99.90;;;;;;5075566;28;20040;-61
2023/06/06 09:59:08;;;;;;;8.77;5.15;;;16.80;99.90;;;;;;5105569;27;20126;-61
2023/06/06 10:01:37;;;;;;;10.13;4.65;;;16.70;99.90;;;;;;5125625;27;20785;-61
2023/06/06 10:04:06;;;;;;;11.48;5.18;;;16.60;99.90;;;;;;5107632;28;20046;-62
2023/06/06 10:06:37;;;;;;;10.73;5.35;;;16.30;99.90;;;;;;5091450;28;20048;-62
2023/06/06 10:09:05;;;;;;;13.52;5.85;;;16.10;99.90;;;;;;5109556;28;20403;-62
2023/06/06 10:11:35;;;;;;;10.60;5.47;;;16.00;99.90;;;;;;5113225;28;20035;-62
2023/06/06 10:14:05;;;;;;;9.68;5.43;;;16.10;99.90;;;;;;5094281;28;20533;-62
2023/06/06 10:16:34;;;;;;;9.90;5.43;;;16.20;99.90;;;;;;5111385;28;20156;-62
2023/06/06 10:19:00;;;;;;;12.23;6.55;;;16.30;99.90;;;;;;5112919;28;20058;-62
2023/06/06 10:21:28;;;;;;;10.90;6.43;;;16.40;99.90;;;;;;5111323;28;20504;-62
2023/06/06 10:23:54;;;;;;;10.68;6.25;;;16.40;99.90;;;;;;5111671;28;20138;-59
2023/06/06 10:26:36;;;;;;;11.40;5.90;;;16.40;99.90;;;;;;5108302;28;20051;-60
2023/06/06 10:29:21;;;;;;;11.23;5.88;;;16.50;99.90;;;;;;5098777;28;20036;-60
2023/06/06 10:31:55;;;;;;;11.52;6.30;;;16.60;99.90;;;;;;5091339;28;20050;-60
2023/06/06 10:34:26;;;;;;;12.77;5.90;;;16.60;99.90;;;;;;5073970;28;20050;-59
2023/06/06 10:36:52;;;;;;;12.18;5.97;;;16.70;99.90;;;;;;5095222;28;20067;-59
2023/06/06 10:39:28;;;;;;;12.40;6.15;;;16.70;99.90;;;;;;5099713;28;20152;-59
2023/06/06 10:42:06;;;;;;;16.00;5.40;;;16.60;99.90;;;;;;5111189;28;20047;-60
2023/06/06 10:44:43;;;;;;;11.07;5.97;;;16.60;99.90;;;;;;5107973;28;20043;-60
2023/06/06 10:47:21;;;;;;;10.40;5.82;;;16.60;99.90;;;;;;5090783;28;20127;-60
2023/06/06 10:50:02;;;;;;;12.18;6.20;;;16.80;99.90;;;;;;5089865;28;20035;-59
2023/06/06 10:52:28;;;;;;;11.30;5.90;;;16.80;99.90;;;;;;5094717;28;20074;-60
2023/06/06 10:54:58;;;;;;;9.25;5.57;;;16.70;99.90;;;;;;5101638;28;20444;-59
2023/06/06 10:57:23;;;;;;;12.98;6.60;;;16.70;99.90;;;;;;5110975;28;20053;-59
2023/06/06 10:59:50;;;;;;;10.77;5.40;;;16.80;99.90;;;;;;5102047;28;20127;-59
2023/06/06 11:02:34;;;;;;;11.90;6.65;;;16.80;99.90;;;;;;5094995;28;20044;-58
2023/06/06 11:05:00;;;;;;;15.50;7.75;;;16.70;99.90;;;;;;5092480;28;20047;-60
2023/06/06 11:07:29;;;;;;;13.20;6.28;;;16.80;99.90;;;;;;5101120;28;20039;-60
2023/06/06 11:09:55;;;;;;;11.85;6.00;;;16.80;99.90;;;;;;5099213;28;20036;-60
2023/06/06 11:12:21;;;;;;;11.45;5.78;;;16.60;99.90;;;;;;5092519;28;20050;-60
2023/06/06 11:15:07;;;;;;;10.55;6.50;;;16.60;99.90;;;;;;5094297;28;20540;-59
2023/06/06 11:17:48;;;;;;;11.52;6.07;;;16.60;99.90;;;;;;5093109;28;20044;-60
2023/06/06 11:20:21;;;;;;;20.98;7.22;;;16.80;99.90;;;;;;5094210;28;20036;-60
2023/06/06 11:23:01;;;;;;;11.52;6.40;;;16.80;99.90;;;;;;5093726;28;20059;-60
2023/06/06 11:25:32;;;;;;;9.35;5.32;;;17.00;99.90;;;;;;5093228;28;20044;-60
2023/06/06 11:27:58;;;;;;;11.85;6.65;;;17.00;99.90;;;;;;5076178;28;20436;-60
2023/06/06 11:30:29;;;;;;;11.88;6.65;;;16.90;99.90;;;;;;5094119;28;20068;-60
2023/06/06 11:32:55;;;;;;;11.82;5.78;;;16.90;99.90;;;;;;5091754;28;20115;-60
2023/06/06 11:35:21;;;;;;;10.93;6.13;;;17.00;99.90;;;;;;5092973;28;20135;-60
2023/06/06 11:37:47;;;;;;;11.65;6.03;;;17.10;99.90;;;;;;5092437;28;20048;-60
2023/06/06 11:40:14;;;;;;;10.00;5.45;;;17.00;99.90;;;;;;5091781;28;20044;-60
2023/06/06 11:42:44;;;;;;;11.48;6.25;;;17.10;99.90;;;;;;5075553;28;20044;-60
2023/06/06 11:45:14;;;;;;;11.55;4.90;;;17.20;99.90;;;;;;5093573;28;20028;-60
2023/06/06 11:47:40;;;;;;;10.55;5.05;;;17.20;99.90;;;;;;5091463;28;20047;-59
2023/06/06 11:50:06;;;;;;;11.77;6.03;;;17.20;99.90;;;;;;5093741;28;20051;-60
2023/06/06 11:52:42;;;;;;;14.60;5.47;;;17.20;99.90;;;;;;5092081;28;20047;-59
2023/06/06 11:55:07;;;;;;;13.55;5.40;;;17.20;99.90;;;;;;5092717;28;20123;-60
2023/06/06 11:57:37;;;;;;;11.90;4.95;;;17.20;99.90;;;;;;5093621;28;20532;-62
2023/06/06 12:00:10;;;;;;;10.05;5.43;;;17.40;99.90;;;;;;5091443;28;20568;-62
2023/06/06 12:02:36;;;;;;;8.57;4.97;;;17.30;99.90;;;;;;5092412;28;20043;-62
2023/06/06 12:05:03;;;;;;;11.75;6.07;;;17.40;99.90;;;;;;5092205;28;20032;-62
2023/06/06 12:07:29;;;;;;;13.05;6.03;;;17.20;99.90;;;;;;5092229;28;20044;-62
2023/06/06 12:09:59;;;;;;;9.77;5.10;;;17.10;99.90;;;;;;5092212;28;20416;-62
2023/06/06 12:12:25;;;;;;;10.48;5.10;;;17.30;99.90;;;;;;5093057;28;20166;-62
2023/06/06 12:14:58;;;;;;;8.93;5.38;;;17.10;99.90;;;;;;5074453;28;20055;-62
2023/06/06 12:17:26;;;;;;;13.30;5.43;;;17.10;99.90;;;;;;5091661;28;20492;-62
2023/06/06 12:19:56;;;;;;;13.68;4.93;;;17.20;99.90;;;;;;5092947;28;20122;-62
2023/06/06 12:22:29;;;;;;;16.42;4.53;;;17.30;99.90;;;;;;5090929;28;20393;-62
2023/06/06 12:24:55;;;;;;;9.73;4.88;;;17.30;99.90;;;;;;5091944;28;20048;-62
2023/06/06 12:27:27;;;;;;;10.70;4.35;;;17.30;99.90;;;;;;5092892;28;20406;-61
2023/06/06 12:29:55;;;;;;;8.63;5.00;;;17.30;99.90;;;;;;5090639;28;20618;-61
2023/06/06 12:32:23;;;;;;;11.63;5.20;;;17.40;99.90;;;;;;5092636;28;20111;-61
2023/06/06 12:34:59;;;;;;;9.75;5.22;;;17.60;99.90;;;;;;5092004;28;20397;-62
2023/06/06 12:37:34;;;;;;;8.15;4.28;;;17.50;99.90;;;;;;5091476;28;20044;-64
2023/06/06 12:40:00;;;;;;;9.68;4.47;;;17.60;99.90;;;;;;5091643;28;20131;-64
2023/06/06 12:42:26;;;;;;;9.52;4.38;;;17.70;99.90;;;;;;5091780;28;20127;-64
2023/06/06 12:44:52;;;;;;;8.77;4.47;;;17.70;99.90;;;;;;5091165;28;20048;-62